sensor_id;sensor_type;location;lat;lon;timestamp;pressure;altitude;pressure_sealevel;temperature;humidity
46379;BME280;32084;42.254;22.744;2023-04-08T00:02:17;95243.28;;;6.48;65.48
46379;BME280;32084;42.254;22.744;2023-04-08T00:04:43;95237.31;;;6.24;65.53
46379;BME280;32084;42.254;22.744;2023-04-08T00:07:09;95247.91;;;6.15;65.58
46379;BME280;32084;42.254;22.744;2023-04-08T00:09:35;95246.66;;;6.19;66.21
46379;BME280;32084;42.254;22.744;2023-04-08T00:12:01;95248.25;;;6.31;66.59
46379;BME280;32084;42.254;22.744;2023-04-08T00:14:27;95241.69;;;6.35;65.88
46379;BME280;32084;42.254;22.744;2023-04-08T00:16:53;95244.28;;;6.25;65.89
46379;BME280;32084;42.254;22.744;2023-04-08T00:19:19;95244.44;;;6.03;66.29
46379;BME280;32084;42.254;22.744;2023-04-08T00:21:45;95244.38;;;5.93;66.64
46379;BME280;32084;42.254;22.744;2023-04-08T00:24:12;95240.50;;;5.97;67.64
46379;BME280;32084;42.254;22.744;2023-04-08T00:26:38;95235.53;;;6.04;66.82
46379;BME280;32084;42.254;22.744;2023-04-08T00:29:04;95225.38;;;6.09;65.65
46379;BME280;32084;42.254;22.744;2023-04-08T00:31:30;95226.25;;;6.19;65.31
46379;BME280;32084;42.254;22.744;2023-04-08T00:33:56;95239.56;;;6.29;66.56
46379;BME280;32084;42.254;22.744;2023-04-08T00:36:22;95234.25;;;6.29;66.20
46379;BME280;32084;42.254;22.744;2023-04-08T00:38:48;95222.63;;;6.20;66.73
46379;BME280;32084;42.254;22.744;2023-04-08T00:41:15;95232.81;;;6.15;67.06
46379;BME280;32084;42.254;22.744;2023-04-08T00:43:41;95228.19;;;6.17;66.84
46379;BME280;32084;42.254;22.744;2023-04-08T00:46:07;95238.41;;;6.22;67.08
46379;BME280;32084;42.254;22.744;2023-04-08T00:48:34;95239.94;;;6.15;66.74
46379;BME280;32084;42.254;22.744;2023-04-08T00:51:00;95237.34;;;6.03;67.21
46379;BME280;32084;42.254;22.744;2023-04-08T00:53:26;95238.44;;;6.01;67.36
46379;BME280;32084;42.254;22.744;2023-04-08T00:55:52;95241.69;;;6.04;68.19
46379;BME280;32084;42.254;22.744;2023-04-08T00:58:18;95243.50;;;6.04;67.94
46379;BME280;32084;42.254;22.744;2023-04-08T01:00:54;95251.06;;;6.09;68.64
46379;BME280;32084;42.254;22.744;2023-04-08T01:08:23;95245.66;;;6.20;67.61
46379;BME280;32084;42.254;22.744;2023-04-08T01:10:51;95250.88;;;6.00;68.29
46379;BME280;32084;42.254;22.744;2023-04-08T01:13:17;95255.50;;;5.87;68.57
46379;BME280;32084;42.254;22.744;2023-04-08T01:15:46;95260.75;;;5.77;68.23
46379;BME280;32084;42.254;22.744;2023-04-08T01:18:13;95265.28;;;5.86;68.16
46379;BME280;32084;42.254;22.744;2023-04-08T01:20:43;95265.84;;;6.01;67.88
46379;BME280;32084;42.254;22.744;2023-04-08T01:25:52;95266.41;;;6.26;66.44
46379;BME280;32084;42.254;22.744;2023-04-08T01:28:18;95278.44;;;6.30;66.61
46379;BME280;32084;42.254;22.744;2023-04-08T01:30:46;95284.25;;;6.24;66.76
46379;BME280;32084;42.254;22.744;2023-04-08T01:33:14;95270.25;;;6.22;66.37
46379;BME280;32084;42.254;22.744;2023-04-08T01:35:41;95268.97;;;6.16;66.63
46379;BME280;32084;42.254;22.744;2023-04-08T01:38:08;95269.84;;;6.17;66.94
46379;BME280;32084;42.254;22.744;2023-04-08T01:40:34;95271.38;;;6.19;67.55
46379;BME280;32084;42.254;22.744;2023-04-08T01:43:03;95274.69;;;6.12;67.59
46379;BME280;32084;42.254;22.744;2023-04-08T01:45:30;95266.72;;;5.91;69.30
46379;BME280;32084;42.254;22.744;2023-04-08T01:47:56;95268.06;;;5.85;69.01
46379;BME280;32084;42.254;22.744;2023-04-08T01:50:23;95278.69;;;5.85;68.60
46379;BME280;32084;42.254;22.744;2023-04-08T01:52:50;95272.97;;;5.68;69.30
46379;BME280;32084;42.254;22.744;2023-04-08T01:55:18;95281.00;;;5.78;68.90
46379;BME280;32084;42.254;22.744;2023-04-08T01:57:48;95278.94;;;5.82;69.04
46379;BME280;32084;42.254;22.744;2023-04-08T02:00:17;95280.75;;;5.81;68.83
46379;BME280;32084;42.254;22.744;2023-04-08T02:02:44;95283.75;;;5.88;68.19
46379;BME280;32084;42.254;22.744;2023-04-08T02:05:12;95288.84;;;5.80;67.65
46379;BME280;32084;42.254;22.744;2023-04-08T02:07:38;95284.13;;;5.83;67.90
46379;BME280;32084;42.254;22.744;2023-04-08T02:10:04;95288.78;;;5.91;68.60
46379;BME280;32084;42.254;22.744;2023-04-08T02:12:31;95283.56;;;6.01;67.30
46379;BME280;32084;42.254;22.744;2023-04-08T02:14:58;95281.81;;;5.90;68.33
46379;BME280;32084;42.254;22.744;2023-04-08T02:17:28;95279.09;;;5.69;68.35
46379;BME280;32084;42.254;22.744;2023-04-08T02:19:57;95281.91;;;5.67;68.42
46379;BME280;32084;42.254;22.744;2023-04-08T02:22:29;95281.50;;;5.72;69.91
46379;BME280;32084;42.254;22.744;2023-04-08T02:24:56;95277.25;;;5.81;69.75
46379;BME280;32084;42.254;22.744;2023-04-08T02:27:24;95280.34;;;5.86;68.88
46379;BME280;32084;42.254;22.744;2023-04-08T02:29:52;95278.44;;;5.88;68.75
46379;BME280;32084;42.254;22.744;2023-04-08T02:32:20;95277.25;;;5.81;69.07
46379;BME280;32084;42.254;22.744;2023-04-08T02:34:48;95277.50;;;5.57;69.10
46379;BME280;32084;42.254;22.744;2023-04-08T02:37:15;95271.09;;;5.59;69.26
46379;BME280;32084;42.254;22.744;2023-04-08T02:39:41;95276.59;;;5.67;69.33
46379;BME280;32084;42.254;22.744;2023-04-08T02:42:07;95270.66;;;5.75;68.91
46379;BME280;32084;42.254;22.744;2023-04-08T02:44:33;95266.38;;;5.84;68.77
46379;BME280;32084;42.254;22.744;2023-04-08T02:46:59;95264.00;;;5.81;68.87
46379;BME280;32084;42.254;22.744;2023-04-08T02:49:25;95259.63;;;5.59;68.84
46379;BME280;32084;42.254;22.744;2023-04-08T02:51:51;95256.91;;;5.49;69.88
46379;BME280;32084;42.254;22.744;2023-04-08T02:54:17;95266.53;;;5.50;69.79
46379;BME280;32084;42.254;22.744;2023-04-08T02:56:43;95258.03;;;5.46;70.24
46379;BME280;32084;42.254;22.744;2023-04-08T02:59:09;95258.66;;;5.39;70.42
46379;BME280;32084;42.254;22.744;2023-04-08T03:01:35;95258.25;;;5.43;69.64
46379;BME280;32084;42.254;22.744;2023-04-08T03:04:01;95263.31;;;5.46;69.36
46379;BME280;32084;42.254;22.744;2023-04-08T03:06:27;95266.47;;;5.61;68.63
46379;BME280;32084;42.254;22.744;2023-04-08T03:08:53;95268.69;;;5.56;69.66
46379;BME280;32084;42.254;22.744;2023-04-08T03:11:19;95263.59;;;5.64;69.70
46379;BME280;32084;42.254;22.744;2023-04-08T03:13:46;95260.03;;;5.54;71.01
46379;BME280;32084;42.254;22.744;2023-04-08T03:16:12;95263.88;;;5.50;70.88
46379;BME280;32084;42.254;22.744;2023-04-08T03:18:38;95271.06;;;5.38;71.10
46379;BME280;32084;42.254;22.744;2023-04-08T03:21:04;95274.94;;;5.34;71.54
46379;BME280;32084;42.254;22.744;2023-04-08T03:23:30;95266.47;;;5.40;71.29
46379;BME280;32084;42.254;22.744;2023-04-08T03:25:56;95274.56;;;5.39;71.23
46379;BME280;32084;42.254;22.744;2023-04-08T03:28:22;95272.88;;;5.38;71.27
46379;BME280;32084;42.254;22.744;2023-04-08T03:30:48;95279.47;;;5.43;71.09
46379;BME280;32084;42.254;22.744;2023-04-08T03:33:14;95279.69;;;5.52;71.19
46379;BME280;32084;42.254;22.744;2023-04-08T03:35:41;95281.94;;;5.35;71.55
46379;BME280;32084;42.254;22.744;2023-04-08T03:38:06;95279.19;;;5.25;71.44
46379;BME280;32084;42.254;22.744;2023-04-08T03:40:33;95285.88;;;5.41;71.71
46379;BME280;32084;42.254;22.744;2023-04-08T03:42:59;95287.03;;;5.48;72.34
46379;BME280;32084;42.254;22.744;2023-04-08T03:45:25;95275.00;;;5.44;71.70
46379;BME280;32084;42.254;22.744;2023-04-08T03:47:51;95283.91;;;5.54;71.83
46379;BME280;32084;42.254;22.744;2023-04-08T03:50:17;95281.97;;;5.56;70.98
46379;BME280;32084;42.254;22.744;2023-04-08T03:52:43;95287.63;;;5.52;71.58
46379;BME280;32084;42.254;22.744;2023-04-08T03:55:09;95279.56;;;5.53;71.03
46379;BME280;32084;42.254;22.744;2023-04-08T03:57:35;95289.91;;;5.56;70.70
46379;BME280;32084;42.254;22.744;2023-04-08T04:00:01;95284.50;;;5.58;71.27
46379;BME280;32084;42.254;22.744;2023-04-08T04:02:27;95286.88;;;5.61;71.23
46379;BME280;32084;42.254;22.744;2023-04-08T04:04:53;95280.03;;;5.58;71.47
46379;BME280;32084;42.254;22.744;2023-04-08T04:07:19;95283.19;;;5.52;71.78
46379;BME280;32084;42.254;22.744;2023-04-08T04:09:45;95278.88;;;5.40;72.21
46379;BME280;32084;42.254;22.744;2023-04-08T04:12:11;95285.38;;;5.47;71.20
46379;BME280;32084;42.254;22.744;2023-04-08T04:14:37;95283.09;;;5.42;71.24
46379;BME280;32084;42.254;22.744;2023-04-08T04:17:03;95286.31;;;5.46;71.23
46379;BME280;32084;42.254;22.744;2023-04-08T04:19:29;95282.63;;;5.37;71.36
46379;BME280;32084;42.254;22.744;2023-04-08T04:21:56;95289.72;;;5.37;71.29
46379;BME280;32084;42.254;22.744;2023-04-08T04:24:22;95287.97;;;5.26;71.14
46379;BME280;32084;42.254;22.744;2023-04-08T04:26:48;95287.75;;;5.18;71.52
46379;BME280;32084;42.254;22.744;2023-04-08T04:29:14;95296.13;;;5.34;71.28
46379;BME280;32084;42.254;22.744;2023-04-08T04:31:40;95298.50;;;5.48;70.44
46379;BME280;32084;42.254;22.744;2023-04-08T04:34:06;95294.84;;;5.61;70.61
46379;BME280;32084;42.254;22.744;2023-04-08T04:36:32;95293.53;;;5.55;71.25
46379;BME280;32084;42.254;22.744;2023-04-08T04:38:58;95294.19;;;5.36;71.75
46379;BME280;32084;42.254;22.744;2023-04-08T04:41:24;95293.00;;;5.29;71.07
46379;BME280;32084;42.254;22.744;2023-04-08T04:43:51;95285.78;;;5.31;71.51
46379;BME280;32084;42.254;22.744;2023-04-08T04:46:17;95293.97;;;5.39;70.44
46379;BME280;32084;42.254;22.744;2023-04-08T04:48:44;95295.25;;;5.45;70.19
46379;BME280;32084;42.254;22.744;2023-04-08T04:51:10;95296.97;;;5.67;70.82
46379;BME280;32084;42.254;22.744;2023-04-08T04:53:36;95291.47;;;5.80;70.69
46379;BME280;32084;42.254;22.744;2023-04-08T04:56:02;95297.44;;;5.93;70.75
46379;BME280;32084;42.254;22.744;2023-04-08T04:58:28;95302.44;;;5.86;72.22
46379;BME280;32084;42.254;22.744;2023-04-08T05:00:55;95294.47;;;5.86;71.58
46379;BME280;32084;42.254;22.744;2023-04-08T05:03:21;95297.38;;;5.83;70.76
46379;BME280;32084;42.254;22.744;2023-04-08T05:05:50;95297.31;;;5.74;70.66
46379;BME280;32084;42.254;22.744;2023-04-08T05:08:17;95306.41;;;5.92;70.37
46379;BME280;32084;42.254;22.744;2023-04-08T05:10:43;95303.78;;;6.13;70.31
46379;BME280;32084;42.254;22.744;2023-04-08T05:13:09;95303.41;;;6.28;70.11
46379;BME280;32084;42.254;22.744;2023-04-08T05:15:35;95300.97;;;6.36;69.19
46379;BME280;32084;42.254;22.744;2023-04-08T05:18:01;95308.44;;;6.52;69.48
46379;BME280;32084;42.254;22.744;2023-04-08T05:20:27;95305.53;;;6.55;66.69
46379;BME280;32084;42.254;22.744;2023-04-08T05:22:53;95305.44;;;6.66;67.14
46379;BME280;32084;42.254;22.744;2023-04-08T05:25:19;95304.38;;;6.78;66.35
46379;BME280;32084;42.254;22.744;2023-04-08T05:27:46;95266.09;;;6.60;64.41
46379;BME280;32084;42.254;22.744;2023-04-08T05:30:12;95299.50;;;6.83;65.27
46379;BME280;32084;42.254;22.744;2023-04-08T05:32:38;95303.13;;;6.82;66.73
46379;BME280;32084;42.254;22.744;2023-04-08T05:35:04;95297.44;;;6.97;66.70
46379;BME280;32084;42.254;22.744;2023-04-08T05:37:30;95307.41;;;7.04;64.89
46379;BME280;32084;42.254;22.744;2023-04-08T05:39:56;95306.38;;;6.96;63.80
46379;BME280;32084;42.254;22.744;2023-04-08T05:42:22;95304.47;;;7.08;64.96
46379;BME280;32084;42.254;22.744;2023-04-08T05:44:48;95298.88;;;7.11;64.33
46379;BME280;32084;42.254;22.744;2023-04-08T05:47:14;95304.50;;;7.17;65.78
46379;BME280;32084;42.254;22.744;2023-04-08T05:49:41;95303.69;;;7.27;63.50
46379;BME280;32084;42.254;22.744;2023-04-08T05:52:07;95306.75;;;7.22;62.65
46379;BME280;32084;42.254;22.744;2023-04-08T05:54:33;95307.75;;;7.31;63.37
46379;BME280;32084;42.254;22.744;2023-04-08T05:56:59;95303.84;;;7.35;62.41
46379;BME280;32084;42.254;22.744;2023-04-08T05:59:25;95302.81;;;7.26;61.81
46379;BME280;32084;42.254;22.744;2023-04-08T06:01:51;95306.94;;;7.40;61.21
46379;BME280;32084;42.254;22.744;2023-04-08T06:04:17;95307.91;;;7.68;59.90
46379;BME280;32084;42.254;22.744;2023-04-08T06:06:43;95304.00;;;7.72;60.79
46379;BME280;32084;42.254;22.744;2023-04-08T06:09:09;95297.81;;;7.72;60.86
46379;BME280;32084;42.254;22.744;2023-04-08T06:11:35;95304.41;;;7.87;61.51
46379;BME280;32084;42.254;22.744;2023-04-08T06:14:01;95302.28;;;8.00;59.94
46379;BME280;32084;42.254;22.744;2023-04-08T06:16:27;95307.34;;;8.13;58.51
46379;BME280;32084;42.254;22.744;2023-04-08T06:18:53;95298.59;;;8.31;59.03
46379;BME280;32084;42.254;22.744;2023-04-08T06:21:19;95310.38;;;8.48;61.00
46379;BME280;32084;42.254;22.744;2023-04-08T06:23:46;95304.19;;;8.57;58.56
46379;BME280;32084;42.254;22.744;2023-04-08T06:26:12;95310.06;;;8.98;58.11
46379;BME280;32084;42.254;22.744;2023-04-08T06:28:38;95312.34;;;9.21;57.13
46379;BME280;32084;42.254;22.744;2023-04-08T06:31:04;95313.44;;;9.28;56.05
46379;BME280;32084;42.254;22.744;2023-04-08T06:33:30;95308.34;;;9.34;55.11
46379;BME280;32084;42.254;22.744;2023-04-08T06:36:03;95300.59;;;9.41;55.93
46379;BME280;32084;42.254;22.744;2023-04-08T06:38:29;95306.97;;;9.30;55.65
46379;BME280;32084;42.254;22.744;2023-04-08T06:41:05;95307.56;;;9.24;54.53
46379;BME280;32084;42.254;22.744;2023-04-08T06:43:32;95304.16;;;9.32;55.78
46379;BME280;32084;42.254;22.744;2023-04-08T06:45:58;95303.13;;;9.33;55.71
46379;BME280;32084;42.254;22.744;2023-04-08T06:48:25;95308.00;;;9.19;55.67
46379;BME280;32084;42.254;22.744;2023-04-08T06:50:55;95309.94;;;8.99;57.36
46379;BME280;32084;42.254;22.744;2023-04-08T06:53:24;95311.13;;;9.15;56.40
46379;BME280;32084;42.254;22.744;2023-04-08T06:55:51;95305.09;;;9.58;55.76
46379;BME280;32084;42.254;22.744;2023-04-08T06:58:17;95310.56;;;9.75;55.07
46379;BME280;32084;42.254;22.744;2023-04-08T07:00:43;95307.25;;;9.91;54.83
46379;BME280;32084;42.254;22.744;2023-04-08T07:03:09;95310.56;;;10.29;53.89
46379;BME280;32084;42.254;22.744;2023-04-08T07:05:36;95312.41;;;11.07;51.31
46379;BME280;32084;42.254;22.744;2023-04-08T07:08:03;95318.34;;;11.86;49.90
46379;BME280;32084;42.254;22.744;2023-04-08T07:10:31;95330.16;;;12.50;47.84
46379;BME280;32084;42.254;22.744;2023-04-08T07:12:57;95336.69;;;12.56;44.64
46379;BME280;32084;42.254;22.744;2023-04-08T07:15:24;95337.69;;;12.47;45.99
46379;BME280;32084;42.254;22.744;2023-04-08T07:17:50;95340.41;;;13.19;45.99
46379;BME280;32084;42.254;22.744;2023-04-08T07:20:16;95337.50;;;13.45;45.64
46379;BME280;32084;42.254;22.744;2023-04-08T07:22:43;95342.31;;;12.86;44.60
46379;BME280;32084;42.254;22.744;2023-04-08T07:25:09;95333.16;;;12.39;46.80
46379;BME280;32084;42.254;22.744;2023-04-08T07:27:35;95331.63;;;11.96;47.42
46379;BME280;32084;42.254;22.744;2023-04-08T07:30:01;95329.72;;;11.80;47.95
46379;BME280;32084;42.254;22.744;2023-04-08T07:32:27;95329.75;;;11.88;48.07
46379;BME280;32084;42.254;22.744;2023-04-08T07:34:54;95333.31;;;12.21;47.24
46379;BME280;32084;42.254;22.744;2023-04-08T07:37:20;95336.50;;;12.41;46.35
46379;BME280;32084;42.254;22.744;2023-04-08T07:39:46;95335.00;;;12.55;46.94
46379;BME280;32084;42.254;22.744;2023-04-08T07:42:12;95338.19;;;12.59;46.67
46379;BME280;32084;42.254;22.744;2023-04-08T07:44:38;95333.69;;;13.23;48.20
46379;BME280;32084;42.254;22.744;2023-04-08T07:47:04;95334.66;;;13.47;46.72
46379;BME280;32084;42.254;22.744;2023-04-08T07:49:30;95341.03;;;13.29;44.69
46379;BME280;32084;42.254;22.744;2023-04-08T07:51:56;95339.59;;;13.11;45.76
46379;BME280;32084;42.254;22.744;2023-04-08T07:54:22;95341.81;;;13.86;43.95
46379;BME280;32084;42.254;22.744;2023-04-08T07:56:48;95344.97;;;14.21;43.27
46379;BME280;32084;42.254;22.744;2023-04-08T07:59:14;95343.53;;;13.79;44.33
46379;BME280;32084;42.254;22.744;2023-04-08T08:01:41;95337.19;;;13.24;45.86
46379;BME280;32084;42.254;22.744;2023-04-08T08:04:07;95337.16;;;12.76;47.05
46379;BME280;32084;42.254;22.744;2023-04-08T08:06:33;95349.88;;;12.91;46.50
46379;BME280;32084;42.254;22.744;2023-04-08T08:08:59;95343.31;;;12.93;46.53
46379;BME280;32084;42.254;22.744;2023-04-08T08:11:25;95332.84;;;13.31;46.15
46379;BME280;32084;42.254;22.744;2023-04-08T08:13:52;95329.50;;;14.23;46.03
46379;BME280;32084;42.254;22.744;2023-04-08T08:16:18;95348.56;;;14.97;43.77
46379;BME280;32084;42.254;22.744;2023-04-08T08:18:45;95345.06;;;14.97;42.39
46379;BME280;32084;42.254;22.744;2023-04-08T08:21:11;95335.56;;;15.46;43.26
46379;BME280;32084;42.254;22.744;2023-04-08T08:23:37;95343.28;;;15.64;40.58
46379;BME280;32084;42.254;22.744;2023-04-08T08:26:06;95334.84;;;15.22;42.65
46379;BME280;32084;42.254;22.744;2023-04-08T08:28:34;95334.09;;;15.43;42.28
46379;BME280;32084;42.254;22.744;2023-04-08T08:31:00;95336.03;;;15.64;43.04
46379;BME280;32084;42.254;22.744;2023-04-08T08:33:27;95325.53;;;15.69;42.23
46379;BME280;32084;42.254;22.744;2023-04-08T08:35:53;95332.25;;;16.10;40.60
46379;BME280;32084;42.254;22.744;2023-04-08T08:38:20;95327.72;;;15.29;42.23
46379;BME280;32084;42.254;22.744;2023-04-08T08:40:46;95321.59;;;14.68;43.77
46379;BME280;32084;42.254;22.744;2023-04-08T08:43:18;95322.19;;;14.78;44.47
46379;BME280;32084;42.254;22.744;2023-04-08T08:45:45;95318.09;;;15.71;43.35
46379;BME280;32084;42.254;22.744;2023-04-08T08:48:11;95313.81;;;15.62;43.47
46379;BME280;32084;42.254;22.744;2023-04-08T08:50:37;95308.78;;;14.70;44.17
46379;BME280;32084;42.254;22.744;2023-04-08T08:53:03;95307.19;;;14.37;45.07
46379;BME280;32084;42.254;22.744;2023-04-08T08:55:30;95298.19;;;14.07;46.25
46379;BME280;32084;42.254;22.744;2023-04-08T08:58:00;95293.50;;;13.78;46.62
46379;BME280;32084;42.254;22.744;2023-04-08T09:00:36;95296.16;;;13.55;46.02
46379;BME280;32084;42.254;22.744;2023-04-08T09:03:15;95298.59;;;13.33;47.41
46379;BME280;32084;42.254;22.744;2023-04-08T09:05:52;95306.31;;;13.28;46.84
46379;BME280;32084;42.254;22.744;2023-04-08T09:08:22;95297.13;;;13.22;47.53
46379;BME280;32084;42.254;22.744;2023-04-08T09:10:48;95291.19;;;13.43;46.51
46379;BME280;32084;42.254;22.744;2023-04-08T09:13:14;95292.91;;;13.28;47.89
46379;BME280;32084;42.254;22.744;2023-04-08T09:16:25;95287.00;;;13.72;47.22
46379;BME280;32084;42.254;22.744;2023-04-08T09:18:26;95285.03;;;14.35;45.67
46379;BME280;32084;42.254;22.744;2023-04-08T09:20:52;95283.94;;;14.44;45.83
46379;BME280;32084;42.254;22.744;2023-04-08T09:23:18;95281.16;;;14.53;45.77
46379;BME280;32084;42.254;22.744;2023-04-08T09:25:45;95273.56;;;14.18;46.78
46379;BME280;32084;42.254;22.744;2023-04-08T09:28:18;95268.69;;;13.99;47.96
46379;BME280;32084;42.254;22.744;2023-04-08T09:30:45;95278.56;;;15.12;46.18
46379;BME280;32084;42.254;22.744;2023-04-08T09:33:11;95270.38;;;14.76;46.46
46379;BME280;32084;42.254;22.744;2023-04-08T09:35:37;95271.41;;;14.37;46.86
46379;BME280;32084;42.254;22.744;2023-04-08T09:38:03;95273.31;;;14.05;47.13
46379;BME280;32084;42.254;22.744;2023-04-08T09:40:33;95263.13;;;13.77;48.00
46379;BME280;32084;42.254;22.744;2023-04-08T09:43:03;95262.91;;;13.56;48.59
46379;BME280;32084;42.254;22.744;2023-04-08T09:45:30;95264.75;;;14.10;48.19
46379;BME280;32084;42.254;22.744;2023-04-08T09:48:09;95267.34;;;14.94;47.15
46379;BME280;32084;42.254;22.744;2023-04-08T09:50:39;95263.25;;;14.98;46.57
46379;BME280;32084;42.254;22.744;2023-04-08T09:53:29;95265.28;;;15.11;46.67
46379;BME280;32084;42.254;22.744;2023-04-08T09:59:55;95263.69;;;14.72;45.89
46379;BME280;32084;42.254;22.744;2023-04-08T10:02:28;95259.72;;;14.44;45.69
46379;BME280;32084;42.254;22.744;2023-04-08T10:04:56;95253.66;;;14.28;46.82
46379;BME280;32084;42.254;22.744;2023-04-08T10:07:23;95245.38;;;14.14;47.68
46379;BME280;32084;42.254;22.744;2023-04-08T10:09:49;95249.66;;;14.23;47.25
46379;BME280;32084;42.254;22.744;2023-04-08T10:12:16;95255.59;;;14.34;46.48
46379;BME280;32084;42.254;22.744;2023-04-08T10:15:01;95253.31;;;14.31;46.16
46379;BME280;32084;42.254;22.744;2023-04-08T10:17:28;95255.78;;;14.17;46.33
46379;BME280;32084;42.254;22.744;2023-04-08T10:20:00;95247.47;;;14.04;47.03
46379;BME280;32084;42.254;22.744;2023-04-08T10:27:43;95246.69;;;13.72;47.53
46379;BME280;32084;42.254;22.744;2023-04-08T10:32:51;95263.22;;;13.61;47.12
46379;BME280;32084;42.254;22.744;2023-04-08T10:35:27;95269.25;;;13.63;46.66
46379;BME280;32084;42.254;22.744;2023-04-08T10:37:53;95273.53;;;13.49;47.01
46379;BME280;32084;42.254;22.744;2023-04-08T10:40:20;95265.66;;;13.47;48.02
46379;BME280;32084;42.254;22.744;2023-04-08T10:42:46;95263.06;;;13.54;47.88
46379;BME280;32084;42.254;22.744;2023-04-08T10:45:15;95264.94;;;13.54;46.22
46379;BME280;32084;42.254;22.744;2023-04-08T10:47:42;95245.38;;;13.68;48.32
46379;BME280;32084;42.254;22.744;2023-04-08T10:50:12;95247.75;;;14.09;47.03
46379;BME280;32084;42.254;22.744;2023-04-08T10:53:11;95239.34;;;13.89;49.15
46379;BME280;32084;42.254;22.744;2023-04-08T10:55:30;95243.13;;;13.48;46.74
46379;BME280;32084;42.254;22.744;2023-04-08T10:58:04;95244.47;;;13.53;47.24
46379;BME280;32084;42.254;22.744;2023-04-08T11:00:34;95235.50;;;13.29;48.42
46379;BME280;32084;42.254;22.744;2023-04-08T11:03:01;95225.84;;;13.12;50.07
46379;BME280;32084;42.254;22.744;2023-04-08T11:05:27;95227.97;;;12.85;49.84
46379;BME280;32084;42.254;22.744;2023-04-08T11:07:53;95233.44;;;12.52;50.71
46379;BME280;32084;42.254;22.744;2023-04-08T11:10:20;95219.19;;;12.43;52.23
46379;BME280;32084;42.254;22.744;2023-04-08T11:12:46;95216.00;;;12.56;51.70
46379;BME280;32084;42.254;22.744;2023-04-08T11:15:13;95206.47;;;12.93;52.88
46379;BME280;32084;42.254;22.744;2023-04-08T11:17:39;95199.31;;;13.17;52.08
46379;BME280;32084;42.254;22.744;2023-04-08T11:20:06;95205.09;;;12.97;49.25
46379;BME280;32084;42.254;22.744;2023-04-08T11:22:33;95197.78;;;12.83;50.26
46379;BME280;32084;42.254;22.744;2023-04-08T11:24:59;95196.63;;;13.17;51.73
46379;BME280;32084;42.254;22.744;2023-04-08T11:27:25;95200.75;;;13.82;50.90
46379;BME280;32084;42.254;22.744;2023-04-08T11:29:55;95207.16;;;14.19;48.24
46379;BME280;32084;42.254;22.744;2023-04-08T11:32:21;95204.78;;;13.63;49.90
46379;BME280;32084;42.254;22.744;2023-04-08T11:34:48;95200.19;;;13.72;49.28
46379;BME280;32084;42.254;22.744;2023-04-08T11:37:14;95212.16;;;13.61;48.87
46379;BME280;32084;42.254;22.744;2023-04-08T11:39:43;95198.00;;;13.44;49.16
46379;BME280;32084;42.254;22.744;2023-04-08T11:42:29;95208.22;;;13.48;48.64
46379;BME280;32084;42.254;22.744;2023-04-08T11:44:55;95208.00;;;13.58;48.72
46379;BME280;32084;42.254;22.744;2023-04-08T11:47:28;95214.53;;;13.56;48.02
46379;BME280;32084;42.254;22.744;2023-04-08T11:49:55;95221.34;;;13.43;48.01
46379;BME280;32084;42.254;22.744;2023-04-08T11:52:21;95217.53;;;13.38;47.95
46379;BME280;32084;42.254;22.744;2023-04-08T11:54:47;95221.94;;;13.31;48.51
46379;BME280;32084;42.254;22.744;2023-04-08T11:57:13;95214.06;;;13.21;48.70
46379;BME280;32084;42.254;22.744;2023-04-08T11:59:40;95210.34;;;13.30;48.22
46379;BME280;32084;42.254;22.744;2023-04-08T12:02:07;95207.16;;;13.58;47.32
46379;BME280;32084;42.254;22.744;2023-04-08T12:04:33;95205.50;;;13.57;46.64
46379;BME280;32084;42.254;22.744;2023-04-08T12:06:59;95208.31;;;14.01;45.22
46379;BME280;32084;42.254;22.744;2023-04-08T12:09:25;95206.81;;;14.60;45.30
46379;BME280;32084;42.254;22.744;2023-04-08T12:11:52;95202.66;;;14.72;44.43
46379;BME280;32084;42.254;22.744;2023-04-08T12:14:18;95199.00;;;14.95;44.60
46379;BME280;32084;42.254;22.744;2023-04-08T12:16:46;95196.16;;;14.67;42.70
46379;BME280;32084;42.254;22.744;2023-04-08T12:19:12;95197.25;;;14.57;42.31
46379;BME280;32084;42.254;22.744;2023-04-08T12:21:39;95192.34;;;14.61;43.06
46379;BME280;32084;42.254;22.744;2023-04-08T12:24:05;95184.13;;;14.54;43.49
46379;BME280;32084;42.254;22.744;2023-04-08T12:26:31;95185.16;;;14.38;43.32
46379;BME280;32084;42.254;22.744;2023-04-08T12:28:58;95180.31;;;14.34;43.45
46379;BME280;32084;42.254;22.744;2023-04-08T12:31:24;95189.47;;;14.24;43.64
46379;BME280;32084;42.254;22.744;2023-04-08T12:33:52;95188.03;;;13.99;43.72
46379;BME280;32084;42.254;22.744;2023-04-08T12:36:18;95185.59;;;13.89;43.83
46379;BME280;32084;42.254;22.744;2023-04-08T12:38:45;95183.38;;;13.93;44.08
46379;BME280;32084;42.254;22.744;2023-04-08T12:41:11;95186.16;;;13.99;45.84
46379;BME280;32084;42.254;22.744;2023-04-08T12:43:37;95189.75;;;13.92;45.88
46379;BME280;32084;42.254;22.744;2023-04-08T12:46:04;95188.28;;;13.89;46.59
46379;BME280;32084;42.254;22.744;2023-04-08T12:48:30;95195.06;;;14.00;45.56
46379;BME280;32084;42.254;22.744;2023-04-08T12:50:56;95180.34;;;14.11;45.88
46379;BME280;32084;42.254;22.744;2023-04-08T12:53:25;95185.69;;;14.34;44.33
46379;BME280;32084;42.254;22.744;2023-04-08T12:55:51;95181.84;;;14.66;45.90
46379;BME280;32084;42.254;22.744;2023-04-08T12:58:22;95170.41;;;14.94;47.10
46379;BME280;32084;42.254;22.744;2023-04-08T13:00:49;95164.09;;;14.87;45.24
46379;BME280;32084;42.254;22.744;2023-04-08T13:03:15;95160.03;;;14.76;47.15
46379;BME280;32084;42.254;22.744;2023-04-08T13:05:42;95160.94;;;14.68;45.94
46379;BME280;32084;42.254;22.744;2023-04-08T13:08:09;95158.66;;;14.65;45.72
46379;BME280;32084;42.254;22.744;2023-04-08T13:10:36;95159.13;;;14.83;46.19
46379;BME280;32084;42.254;22.744;2023-04-08T13:13:03;95171.88;;;14.52;43.26
46379;BME280;32084;42.254;22.744;2023-04-08T13:15:29;95168.78;;;14.10;44.88